Pagina principale
METAR-TAF:

METAR-TAF

Aeroporti :

Cazaux, Francia

latitudine: 44-32N, longitudine: 001-08W, altezza: 25 m

Osservazione

Il bollettino è stato emesso 44 minuti fa, alle 06:30 UTC
Vento 4 kt da nord/nord-est
Temperature 6°C
Umidità 87%
Pressione 1014 hPa
Visibilità 10 km o più
Cielo coperto ad un'altezza di 4800 ft

METAR: LFBC 180630Z AUTO 03004KT 9999 OVC048 06/04 Q1014

Ora: 08:14 (07:14 UTC)

Previsione

Il bollettino è stato emesso 45 minuti fa, alle 06:29 UTC
Previsione valida dal 18 alle 06 UTC al 19 alle 03 UTC
Vento 5 kt da nord
Visibilità 10 km o più
Nuvoloso ad un'altezza di 4500 ft
Evoluzione graduale
dal 18 alle 19 UTC al 18 alle 21 UTC
Visibilità: 3000 m
foschia
Probabilità 40% :
Temporaneamente
dal 19 alle 00 UTC al 19 alle 03 UTC
Visibilità: 0500 m
nebbia

TAF: LFBC 180629Z 1806/1903 01005KT 9999 BKN045 BECMG 1819/1821 3000 BR PROB40 TEMPO 1900/1903 0500 FG VV///

Osservazioni e previsioni meteorologiche di più di 4000 aeroporti (messaggi METAR e TAF).

Le stazioni disponibili sono rappresentate dai dischi gialli e rossi sulla carta.

Puntare il mouse per vedere il nome della stazione.

Clicca sopra per visualizzare le osservazioni e previsioni meteorologiche.

Per cambiare la mappa : fare clic sui pulsanti verdi con una croce nera per ingrandire, il pulsante verde con un trattino per diminuire, o sulla freccia verde per le mappe adiacenti.


METAR-TAF: